sensor_id;sensor_type;location;lat;lon;timestamp;P1;durP1;ratioP1;P2;durP2;ratioP2
28304;SDS011;15569;42.652;23.040;2023-04-21T00:01:11;22.25;;;13.02;;
28304;SDS011;15569;42.652;23.040;2023-04-21T00:03:36;27.98;;;13.60;;
28304;SDS011;15569;42.652;23.040;2023-04-21T00:06:02;22.00;;;11.98;;
28304;SDS011;15569;42.652;23.040;2023-04-21T00:08:30;27.35;;;12.68;;
28304;SDS011;15569;42.652;23.040;2023-04-21T00:10:56;23.67;;;12.90;;
28304;SDS011;15569;42.652;23.040;2023-04-21T00:13:22;23.75;;;13.13;;
28304;SDS011;15569;42.652;23.040;2023-04-21T00:15:48;38.90;;;12.15;;
28304;SDS011;15569;42.652;23.040;2023-04-21T00:18:13;20.67;;;11.25;;
28304;SDS011;15569;42.652;23.040;2023-04-21T00:20:39;18.63;;;10.40;;
28304;SDS011;15569;42.652;23.040;2023-04-21T00:23:04;21.77;;;11.55;;
28304;SDS011;15569;42.652;23.040;2023-04-21T00:25:29;23.55;;;10.75;;
28304;SDS011;15569;42.652;23.040;2023-04-21T00:27:55;21.83;;;10.73;;
28304;SDS011;15569;42.652;23.040;2023-04-21T00:30:20;22.10;;;10.63;;
28304;SDS011;15569;42.652;23.040;2023-04-21T00:32:46;23.08;;;11.63;;
28304;SDS011;15569;42.652;23.040;2023-04-21T00:35:11;20.35;;;9.73;;
28304;SDS011;15569;42.652;23.040;2023-04-21T00:37:37;18.15;;;10.02;;
28304;SDS011;15569;42.652;23.040;2023-04-21T00:40:03;18.05;;;10.18;;
28304;SDS011;15569;42.652;23.040;2023-04-21T00:42:29;22.55;;;10.65;;
28304;SDS011;15569;42.652;23.040;2023-04-21T00:44:54;20.10;;;10.32;;
28304;SDS011;15569;42.652;23.040;2023-04-21T00:47:19;22.83;;;10.13;;
28304;SDS011;15569;42.652;23.040;2023-04-21T00:49:45;19.27;;;9.48;;
28304;SDS011;15569;42.652;23.040;2023-04-21T00:52:11;20.65;;;10.73;;
28304;SDS011;15569;42.652;23.040;2023-04-21T00:54:38;18.08;;;10.48;;
28304;SDS011;15569;42.652;23.040;2023-04-21T00:57:04;17.73;;;9.07;;
28304;SDS011;15569;42.652;23.040;2023-04-21T00:59:31;15.35;;;8.90;;
28304;SDS011;15569;42.652;23.040;2023-04-21T01:01:57;19.30;;;9.35;;
28304;SDS011;15569;42.652;23.040;2023-04-21T01:04:22;17.67;;;10.73;;
28304;SDS011;15569;42.652;23.040;2023-04-21T01:06:48;21.23;;;10.50;;
28304;SDS011;15569;42.652;23.040;2023-04-21T01:09:13;15.75;;;9.65;;
28304;SDS011;15569;42.652;23.040;2023-04-21T01:11:39;12.82;;;8.55;;
28304;SDS011;15569;42.652;23.040;2023-04-21T01:14:05;16.15;;;9.85;;
28304;SDS011;15569;42.652;23.040;2023-04-21T01:16:31;18.13;;;9.75;;
28304;SDS011;15569;42.652;23.040;2023-04-21T01:18:57;18.83;;;9.43;;
28304;SDS011;15569;42.652;23.040;2023-04-21T01:21:24;18.20;;;9.30;;
28304;SDS011;15569;42.652;23.040;2023-04-21T01:23:51;19.98;;;9.90;;
28304;SDS011;15569;42.652;23.040;2023-04-21T01:26:20;16.88;;;8.68;;
28304;SDS011;15569;42.652;23.040;2023-04-21T01:28:46;15.35;;;9.77;;
28304;SDS011;15569;42.652;23.040;2023-04-21T01:31:13;22.05;;;12.07;;
28304;SDS011;15569;42.652;23.040;2023-04-21T01:33:42;21.25;;;11.40;;
28304;SDS011;15569;42.652;23.040;2023-04-21T01:36:08;21.90;;;10.85;;
28304;SDS011;15569;42.652;23.040;2023-04-21T01:38:38;22.65;;;11.32;;
28304;SDS011;15569;42.652;23.040;2023-04-21T01:41:04;27.52;;;12.65;;
28304;SDS011;15569;42.652;23.040;2023-04-21T01:43:30;31.33;;;11.52;;
28304;SDS011;15569;42.652;23.040;2023-04-21T01:45:55;25.13;;;12.35;;
28304;SDS011;15569;42.652;23.040;2023-04-21T01:48:21;26.95;;;12.93;;
28304;SDS011;15569;42.652;23.040;2023-04-21T01:50:46;21.20;;;11.60;;
28304;SDS011;15569;42.652;23.040;2023-04-21T01:53:11;23.85;;;11.30;;
28304;SDS011;15569;42.652;23.040;2023-04-21T01:55:37;23.42;;;11.32;;
28304;SDS011;15569;42.652;23.040;2023-04-21T01:58:02;23.10;;;11.40;;
28304;SDS011;15569;42.652;23.040;2023-04-21T02:00:28;33.83;;;12.48;;
28304;SDS011;15569;42.652;23.040;2023-04-21T02:02:53;26.30;;;11.68;;
28304;SDS011;15569;42.652;23.040;2023-04-21T02:05:18;22.88;;;12.70;;
28304;SDS011;15569;42.652;23.040;2023-04-21T02:07:44;26.98;;;12.50;;
28304;SDS011;15569;42.652;23.040;2023-04-21T02:10:10;23.77;;;12.23;;
28304;SDS011;15569;42.652;23.040;2023-04-21T02:12:36;25.15;;;11.95;;
28304;SDS011;15569;42.652;23.040;2023-04-21T02:15:02;23.08;;;11.07;;
28304;SDS011;15569;42.652;23.040;2023-04-21T02:17:28;22.65;;;10.75;;
28304;SDS011;15569;42.652;23.040;2023-04-21T02:19:53;20.00;;;12.02;;
28304;SDS011;15569;42.652;23.040;2023-04-21T02:22:18;22.63;;;11.88;;
28304;SDS011;15569;42.652;23.040;2023-04-21T02:24:44;21.52;;;11.65;;
28304;SDS011;15569;42.652;23.040;2023-04-21T02:27:09;27.23;;;12.48;;
28304;SDS011;15569;42.652;23.040;2023-04-21T02:29:35;24.20;;;13.80;;
28304;SDS011;15569;42.652;23.040;2023-04-21T02:32:00;30.20;;;14.60;;
28304;SDS011;15569;42.652;23.040;2023-04-21T02:34:25;33.47;;;14.98;;
28304;SDS011;15569;42.652;23.040;2023-04-21T02:36:51;30.90;;;14.35;;
28304;SDS011;15569;42.652;23.040;2023-04-21T02:39:16;26.80;;;13.05;;
28304;SDS011;15569;42.652;23.040;2023-04-21T02:41:41;29.08;;;14.45;;
28304;SDS011;15569;42.652;23.040;2023-04-21T02:44:07;25.05;;;13.05;;
28304;SDS011;15569;42.652;23.040;2023-04-21T02:46:32;29.77;;;13.77;;
28304;SDS011;15569;42.652;23.040;2023-04-21T02:48:58;35.63;;;16.23;;
28304;SDS011;15569;42.652;23.040;2023-04-21T02:51:23;33.08;;;16.60;;
28304;SDS011;15569;42.652;23.040;2023-04-21T02:53:48;36.45;;;14.88;;
28304;SDS011;15569;42.652;23.040;2023-04-21T02:56:14;35.33;;;16.23;;
28304;SDS011;15569;42.652;23.040;2023-04-21T02:58:40;45.28;;;16.95;;
28304;SDS011;15569;42.652;23.040;2023-04-21T03:01:05;33.35;;;15.32;;
28304;SDS011;15569;42.652;23.040;2023-04-21T03:03:31;34.85;;;16.80;;
28304;SDS011;15569;42.652;23.040;2023-04-21T03:05:57;37.10;;;15.93;;
28304;SDS011;15569;42.652;23.040;2023-04-21T03:08:23;37.40;;;15.93;;
28304;SDS011;15569;42.652;23.040;2023-04-21T03:10:49;32.60;;;15.38;;
28304;SDS011;15569;42.652;23.040;2023-04-21T03:13:14;37.45;;;17.65;;
28304;SDS011;15569;42.652;23.040;2023-04-21T03:15:40;33.47;;;16.05;;
28304;SDS011;15569;42.652;23.040;2023-04-21T03:18:06;44.55;;;13.95;;
28304;SDS011;15569;42.652;23.040;2023-04-21T03:20:31;36.92;;;15.90;;
28304;SDS011;15569;42.652;23.040;2023-04-21T03:22:56;45.58;;;15.07;;
28304;SDS011;15569;42.652;23.040;2023-04-21T03:25:22;39.65;;;15.73;;
28304;SDS011;15569;42.652;23.040;2023-04-21T03:27:48;46.08;;;16.50;;
28304;SDS011;15569;42.652;23.040;2023-04-21T03:30:13;43.28;;;16.60;;
28304;SDS011;15569;42.652;23.040;2023-04-21T03:32:39;42.22;;;17.27;;
28304;SDS011;15569;42.652;23.040;2023-04-21T03:35:04;45.78;;;17.73;;
28304;SDS011;15569;42.652;23.040;2023-04-21T03:37:30;42.88;;;14.93;;
28304;SDS011;15569;42.652;23.040;2023-04-21T03:39:55;41.30;;;16.05;;
28304;SDS011;15569;42.652;23.040;2023-04-21T03:42:21;38.15;;;16.13;;
28304;SDS011;15569;42.652;23.040;2023-04-21T03:44:46;51.33;;;21.02;;
28304;SDS011;15569;42.652;23.040;2023-04-21T03:47:12;55.90;;;19.13;;
28304;SDS011;15569;42.652;23.040;2023-04-21T03:49:37;40.88;;;17.80;;
28304;SDS011;15569;42.652;23.040;2023-04-21T03:52:02;41.97;;;18.73;;
28304;SDS011;15569;42.652;23.040;2023-04-21T03:54:28;49.53;;;18.25;;
28304;SDS011;15569;42.652;23.040;2023-04-21T03:56:53;46.42;;;17.45;;
28304;SDS011;15569;42.652;23.040;2023-04-21T03:59:19;45.28;;;16.27;;
28304;SDS011;15569;42.652;23.040;2023-04-21T04:01:44;41.60;;;15.88;;
28304;SDS011;15569;42.652;23.040;2023-04-21T04:04:09;59.63;;;19.17;;
28304;SDS011;15569;42.652;23.040;2023-04-21T04:06:35;44.25;;;19.55;;
28304;SDS011;15569;42.652;23.040;2023-04-21T04:09:00;55.78;;;18.88;;
28304;SDS011;15569;42.652;23.040;2023-04-21T04:11:28;56.17;;;19.27;;
28304;SDS011;15569;42.652;23.040;2023-04-21T04:13:54;51.38;;;20.90;;
28304;SDS011;15569;42.652;23.040;2023-04-21T04:16:20;56.17;;;20.30;;
28304;SDS011;15569;42.652;23.040;2023-04-21T04:18:45;43.42;;;17.65;;
28304;SDS011;15569;42.652;23.040;2023-04-21T04:21:10;37.70;;;16.77;;
28304;SDS011;15569;42.652;23.040;2023-04-21T04:23:36;42.05;;;16.25;;
28304;SDS011;15569;42.652;23.040;2023-04-21T04:26:01;39.47;;;17.83;;
28304;SDS011;15569;42.652;23.040;2023-04-21T04:28:29;47.05;;;16.50;;
28304;SDS011;15569;42.652;23.040;2023-04-21T04:30:55;57.55;;;18.17;;
28304;SDS011;15569;42.652;23.040;2023-04-21T04:33:20;31.77;;;15.98;;
28304;SDS011;15569;42.652;23.040;2023-04-21T04:35:46;41.45;;;16.77;;
28304;SDS011;15569;42.652;23.040;2023-04-21T04:38:11;43.55;;;15.02;;
28304;SDS011;15569;42.652;23.040;2023-04-21T04:40:38;38.22;;;15.38;;
28304;SDS011;15569;42.652;23.040;2023-04-21T04:43:04;40.08;;;15.15;;
28304;SDS011;15569;42.652;23.040;2023-04-21T04:45:30;36.20;;;16.10;;
28304;SDS011;15569;42.652;23.040;2023-04-21T04:47:57;48.03;;;17.90;;
28304;SDS011;15569;42.652;23.040;2023-04-21T04:50:23;43.40;;;15.73;;
28304;SDS011;15569;42.652;23.040;2023-04-21T04:52:48;35.70;;;16.33;;
28304;SDS011;15569;42.652;23.040;2023-04-21T04:55:14;41.42;;;16.70;;
28304;SDS011;15569;42.652;23.040;2023-04-21T04:57:39;51.05;;;17.48;;
28304;SDS011;15569;42.652;23.040;2023-04-21T05:00:06;37.85;;;16.77;;
28304;SDS011;15569;42.652;23.040;2023-04-21T05:02:38;43.90;;;17.08;;
28304;SDS011;15569;42.652;23.040;2023-04-21T05:05:04;37.92;;;15.65;;
28304;SDS011;15569;42.652;23.040;2023-04-21T05:07:30;56.70;;;18.10;;
28304;SDS011;15569;42.652;23.040;2023-04-21T05:09:56;51.40;;;16.05;;
28304;SDS011;15569;42.652;23.040;2023-04-21T05:12:21;50.78;;;17.35;;
28304;SDS011;15569;42.652;23.040;2023-04-21T05:14:47;60.35;;;16.75;;
28304;SDS011;15569;42.652;23.040;2023-04-21T05:17:12;60.75;;;18.45;;
28304;SDS011;15569;42.652;23.040;2023-04-21T05:19:37;43.95;;;16.95;;
28304;SDS011;15569;42.652;23.040;2023-04-21T05:22:03;35.58;;;17.30;;
28304;SDS011;15569;42.652;23.040;2023-04-21T05:24:30;42.53;;;18.13;;
28304;SDS011;15569;42.652;23.040;2023-04-21T05:26:57;52.38;;;17.05;;
28304;SDS011;15569;42.652;23.040;2023-04-21T05:29:22;44.20;;;18.90;;
28304;SDS011;15569;42.652;23.040;2023-04-21T05:31:47;61.42;;;25.00;;
28304;SDS011;15569;42.652;23.040;2023-04-21T05:34:13;64.57;;;24.63;;
28304;SDS011;15569;42.652;23.040;2023-04-21T05:36:41;61.03;;;25.65;;
28304;SDS011;15569;42.652;23.040;2023-04-21T05:39:07;55.95;;;24.00;;
28304;SDS011;15569;42.652;23.040;2023-04-21T05:41:33;57.58;;;21.00;;
28304;SDS011;15569;42.652;23.040;2023-04-21T05:43:58;59.30;;;20.10;;
28304;SDS011;15569;42.652;23.040;2023-04-21T05:46:23;44.72;;;17.48;;
28304;SDS011;15569;42.652;23.040;2023-04-21T05:48:49;35.42;;;15.30;;
28304;SDS011;15569;42.652;23.040;2023-04-21T05:51:14;38.03;;;16.27;;
28304;SDS011;15569;42.652;23.040;2023-04-21T05:53:40;30.20;;;14.68;;
28304;SDS011;15569;42.652;23.040;2023-04-21T05:56:10;32.38;;;14.82;;
28304;SDS011;15569;42.652;23.040;2023-04-21T05:58:36;37.85;;;14.77;;
28304;SDS011;15569;42.652;23.040;2023-04-21T06:01:02;35.65;;;15.27;;
28304;SDS011;15569;42.652;23.040;2023-04-21T06:03:29;37.15;;;15.88;;
28304;SDS011;15569;42.652;23.040;2023-04-21T06:05:55;29.83;;;15.18;;
28304;SDS011;15569;42.652;23.040;2023-04-21T06:08:22;34.17;;;16.70;;
28304;SDS011;15569;42.652;23.040;2023-04-21T06:10:47;30.33;;;15.02;;
28304;SDS011;15569;42.652;23.040;2023-04-21T06:13:13;38.10;;;15.50;;
28304;SDS011;15569;42.652;23.040;2023-04-21T06:15:38;31.23;;;15.93;;
28304;SDS011;15569;42.652;23.040;2023-04-21T06:18:04;35.78;;;16.42;;
28304;SDS011;15569;42.652;23.040;2023-04-21T06:20:29;45.97;;;16.50;;
28304;SDS011;15569;42.652;23.040;2023-04-21T06:22:55;33.95;;;15.95;;
28304;SDS011;15569;42.652;23.040;2023-04-21T06:25:20;42.38;;;15.05;;
28304;SDS011;15569;42.652;23.040;2023-04-21T06:27:46;30.77;;;14.15;;
28304;SDS011;15569;42.652;23.040;2023-04-21T06:30:12;32.03;;;14.98;;
28304;SDS011;15569;42.652;23.040;2023-04-21T06:32:37;36.35;;;16.35;;
28304;SDS011;15569;42.652;23.040;2023-04-21T06:35:03;36.72;;;15.43;;
28304;SDS011;15569;42.652;23.040;2023-04-21T06:37:28;28.25;;;14.40;;
28304;SDS011;15569;42.652;23.040;2023-04-21T06:39:54;31.88;;;12.27;;
28304;SDS011;15569;42.652;23.040;2023-04-21T06:42:19;27.75;;;13.05;;
28304;SDS011;15569;42.652;23.040;2023-04-21T06:44:45;27.95;;;14.15;;
28304;SDS011;15569;42.652;23.040;2023-04-21T06:47:10;31.15;;;13.50;;
28304;SDS011;15569;42.652;23.040;2023-04-21T06:49:36;36.47;;;14.13;;
28304;SDS011;15569;42.652;23.040;2023-04-21T06:52:02;33.72;;;13.55;;
28304;SDS011;15569;42.652;23.040;2023-04-21T06:54:28;28.35;;;12.00;;
28304;SDS011;15569;42.652;23.040;2023-04-21T06:56:53;24.08;;;10.45;;
28304;SDS011;15569;42.652;23.040;2023-04-21T06:59:19;25.63;;;11.27;;
28304;SDS011;15569;42.652;23.040;2023-04-21T07:01:44;23.58;;;11.32;;
28304;SDS011;15569;42.652;23.040;2023-04-21T07:04:13;19.52;;;9.68;;
28304;SDS011;15569;42.652;23.040;2023-04-21T07:06:38;28.15;;;12.02;;
28304;SDS011;15569;42.652;23.040;2023-04-21T07:09:03;19.25;;;10.52;;
28304;SDS011;15569;42.652;23.040;2023-04-21T07:11:29;14.43;;;7.70;;
28304;SDS011;15569;42.652;23.040;2023-04-21T07:13:55;18.55;;;8.70;;
28304;SDS011;15569;42.652;23.040;2023-04-21T07:16:21;16.10;;;8.48;;
28304;SDS011;15569;42.652;23.040;2023-04-21T07:18:48;15.85;;;7.80;;
28304;SDS011;15569;42.652;23.040;2023-04-21T07:21:13;10.60;;;6.80;;
28304;SDS011;15569;42.652;23.040;2023-04-21T07:23:39;18.55;;;8.60;;
28304;SDS011;15569;42.652;23.040;2023-04-21T07:26:04;13.63;;;8.55;;
28304;SDS011;15569;42.652;23.040;2023-04-21T07:28:30;14.95;;;8.00;;
28304;SDS011;15569;42.652;23.040;2023-04-21T07:30:55;13.90;;;8.15;;
28304;SDS011;15569;42.652;23.040;2023-04-21T07:33:20;21.35;;;8.63;;
28304;SDS011;15569;42.652;23.040;2023-04-21T07:35:46;14.93;;;9.30;;
28304;SDS011;15569;42.652;23.040;2023-04-21T07:38:11;19.60;;;8.50;;
28304;SDS011;15569;42.652;23.040;2023-04-21T07:40:37;15.35;;;9.07;;
28304;SDS011;15569;42.652;23.040;2023-04-21T07:43:02;14.23;;;6.93;;
28304;SDS011;15569;42.652;23.040;2023-04-21T07:45:27;19.80;;;8.45;;
28304;SDS011;15569;42.652;23.040;2023-04-21T07:47:53;11.32;;;6.68;;
28304;SDS011;15569;42.652;23.040;2023-04-21T07:50:18;14.90;;;7.63;;
28304;SDS011;15569;42.652;23.040;2023-04-21T07:52:44;15.45;;;6.85;;
28304;SDS011;15569;42.652;23.040;2023-04-21T07:55:09;9.57;;;6.40;;
28304;SDS011;15569;42.652;23.040;2023-04-21T07:57:34;13.63;;;7.80;;
28304;SDS011;15569;42.652;23.040;2023-04-21T08:00:03;13.80;;;7.78;;
28304;SDS011;15569;42.652;23.040;2023-04-21T08:02:30;10.50;;;5.78;;
28304;SDS011;15569;42.652;23.040;2023-04-21T08:04:55;8.50;;;5.53;;
28304;SDS011;15569;42.652;23.040;2023-04-21T08:07:20;9.70;;;6.53;;
28304;SDS011;15569;42.652;23.040;2023-04-21T08:09:46;11.18;;;8.18;;
28304;SDS011;15569;42.652;23.040;2023-04-21T08:12:11;13.32;;;7.82;;
28304;SDS011;15569;42.652;23.040;2023-04-21T08:14:36;12.88;;;8.52;;
28304;SDS011;15569;42.652;23.040;2023-04-21T08:17:02;15.60;;;8.48;;
28304;SDS011;15569;42.652;23.040;2023-04-21T08:19:27;9.25;;;6.88;;
28304;SDS011;15569;42.652;23.040;2023-04-21T08:21:53;10.90;;;7.07;;
28304;SDS011;15569;42.652;23.040;2023-04-21T08:24:18;9.60;;;6.10;;
28304;SDS011;15569;42.652;23.040;2023-04-21T08:26:44;12.15;;;6.40;;
28304;SDS011;15569;42.652;23.040;2023-04-21T08:29:09;9.48;;;5.45;;
28304;SDS011;15569;42.652;23.040;2023-04-21T08:31:35;11.80;;;6.40;;
28304;SDS011;15569;42.652;23.040;2023-04-21T08:34:00;11.15;;;6.30;;
28304;SDS011;15569;42.652;23.040;2023-04-21T08:36:26;9.68;;;5.97;;
28304;SDS011;15569;42.652;23.040;2023-04-21T08:38:52;13.95;;;6.68;;
28304;SDS011;15569;42.652;23.040;2023-04-21T08:41:17;11.80;;;7.50;;
28304;SDS011;15569;42.652;23.040;2023-04-21T08:43:43;9.48;;;5.60;;
28304;SDS011;15569;42.652;23.040;2023-04-21T08:46:09;7.43;;;5.90;;
28304;SDS011;15569;42.652;23.040;2023-04-21T08:48:36;15.18;;;6.38;;
28304;SDS011;15569;42.652;23.040;2023-04-21T08:51:03;10.63;;;6.75;;
28304;SDS011;15569;42.652;23.040;2023-04-21T08:53:31;9.68;;;6.50;;
28304;SDS011;15569;42.652;23.040;2023-04-21T08:55:57;9.70;;;5.80;;
28304;SDS011;15569;42.652;23.040;2023-04-21T08:58:22;7.38;;;5.68;;
28304;SDS011;15569;42.652;23.040;2023-04-21T09:00:48;11.38;;;5.60;;
28304;SDS011;15569;42.652;23.040;2023-04-21T09:03:20;11.48;;;6.82;;
28304;SDS011;15569;42.652;23.040;2023-04-21T09:05:55;13.68;;;7.00;;
28304;SDS011;15569;42.652;23.040;2023-04-21T09:08:31;15.50;;;6.78;;
28304;SDS011;15569;42.652;23.040;2023-04-21T09:10:58;14.88;;;7.05;;
28304;SDS011;15569;42.652;23.040;2023-04-21T09:13:32;15.05;;;8.13;;
28304;SDS011;15569;42.652;23.040;2023-04-21T09:15:58;11.60;;;7.53;;
28304;SDS011;15569;42.652;23.040;2023-04-21T09:18:26;10.15;;;7.15;;
28304;SDS011;15569;42.652;23.040;2023-04-21T09:21:14;14.18;;;7.95;;
28304;SDS011;15569;42.652;23.040;2023-04-21T09:23:41;10.90;;;6.43;;
28304;SDS011;15569;42.652;23.040;2023-04-21T09:26:06;9.88;;;6.00;;
28304;SDS011;15569;42.652;23.040;2023-04-21T09:28:32;8.73;;;6.22;;
28304;SDS011;15569;42.652;23.040;2023-04-21T09:30:58;12.45;;;6.72;;
28304;SDS011;15569;42.652;23.040;2023-04-21T09:33:23;6.97;;;5.85;;
28304;SDS011;15569;42.652;23.040;2023-04-21T09:35:48;6.53;;;4.95;;
28304;SDS011;15569;42.652;23.040;2023-04-21T09:38:14;8.60;;;5.07;;
28304;SDS011;15569;42.652;23.040;2023-04-21T09:40:39;6.88;;;4.10;;
28304;SDS011;15569;42.652;23.040;2023-04-21T09:43:05;5.72;;;3.95;;
28304;SDS011;15569;42.652;23.040;2023-04-21T09:45:31;7.30;;;5.60;;
28304;SDS011;15569;42.652;23.040;2023-04-21T09:47:58;6.97;;;4.50;;
28304;SDS011;15569;42.652;23.040;2023-04-21T09:50:25;8.18;;;4.95;;
28304;SDS011;15569;42.652;23.040;2023-04-21T09:52:52;9.20;;;5.88;;
28304;SDS011;15569;42.652;23.040;2023-04-21T09:55:21;10.25;;;5.38;;
28304;SDS011;15569;42.652;23.040;2023-04-21T09:57:51;7.60;;;4.90;;
28304;SDS011;15569;42.652;23.040;2023-04-21T10:00:17;5.28;;;4.40;;
28304;SDS011;15569;42.652;23.040;2023-04-21T10:02:47;8.95;;;4.47;;
28304;SDS011;15569;42.652;23.040;2023-04-21T10:05:15;6.30;;;4.03;;
28304;SDS011;15569;42.652;23.040;2023-04-21T10:07:40;8.98;;;5.13;;
28304;SDS011;15569;42.652;23.040;2023-04-21T10:10:06;8.48;;;4.05;;
28304;SDS011;15569;42.652;23.040;2023-04-21T10:12:55;7.63;;;5.07;;
28304;SDS011;15569;42.652;23.040;2023-04-21T10:18:23;3.83;;;3.15;;
28304;SDS011;15569;42.652;23.040;2023-04-21T10:23:27;7.30;;;3.65;;
28304;SDS011;15569;42.652;23.040;2023-04-21T10:26:13;5.22;;;3.70;;
28304;SDS011;15569;42.652;23.040;2023-04-21T10:34:15;7.15;;;4.30;;
28304;SDS011;15569;42.652;23.040;2023-04-21T10:41:50;5.00;;;3.85;;
28304;SDS011;15569;42.652;23.040;2023-04-21T10:44:18;12.88;;;4.57;;
28304;SDS011;15569;42.652;23.040;2023-04-21T10:46:46;7.55;;;4.55;;
28304;SDS011;15569;42.652;23.040;2023-04-21T10:49:23;4.85;;;3.72;;
28304;SDS011;15569;42.652;23.040;2023-04-21T10:54:35;4.30;;;3.25;;
28304;SDS011;15569;42.652;23.040;2023-04-21T10:57:10;4.82;;;3.75;;
28304;SDS011;15569;42.652;23.040;2023-04-21T11:02:14;7.82;;;4.95;;
28304;SDS011;15569;42.652;23.040;2023-04-21T11:04:41;13.52;;;5.05;;
28304;SDS011;15569;42.652;23.040;2023-04-21T11:07:14;7.68;;;3.88;;
28304;SDS011;15569;42.652;23.040;2023-04-21T11:09:41;7.22;;;3.40;;
28304;SDS011;15569;42.652;23.040;2023-04-21T11:12:08;8.82;;;4.07;;
28304;SDS011;15569;42.652;23.040;2023-04-21T11:14:35;6.43;;;4.85;;
28304;SDS011;15569;42.652;23.040;2023-04-21T11:17:03;4.80;;;3.90;;
28304;SDS011;15569;42.652;23.040;2023-04-21T11:19:32;4.22;;;3.83;;
28304;SDS011;15569;42.652;23.040;2023-04-21T11:21:58;10.40;;;4.68;;
28304;SDS011;15569;42.652;23.040;2023-04-21T11:24:23;8.80;;;4.72;;
28304;SDS011;15569;42.652;23.040;2023-04-21T11:26:50;6.18;;;4.35;;
28304;SDS011;15569;42.652;23.040;2023-04-21T11:29:15;7.45;;;3.50;;
28304;SDS011;15569;42.652;23.040;2023-04-21T11:31:43;6.30;;;3.55;;
28304;SDS011;15569;42.652;23.040;2023-04-21T11:34:09;4.25;;;3.47;;
28304;SDS011;15569;42.652;23.040;2023-04-21T11:36:39;5.10;;;3.97;;
28304;SDS011;15569;42.652;23.040;2023-04-21T11:41:35;7.78;;;3.97;;
28304;SDS011;15569;42.652;23.040;2023-04-21T11:44:03;6.97;;;4.32;;
28304;SDS011;15569;42.652;23.040;2023-04-21T11:46:28;5.07;;;4.00;;
28304;SDS011;15569;42.652;23.040;2023-04-21T11:49:00;5.07;;;3.97;;
28304;SDS011;15569;42.652;23.040;2023-04-21T11:51:40;13.88;;;3.97;;
28304;SDS011;15569;42.652;23.040;2023-04-21T11:54:08;4.80;;;4.32;;
28304;SDS011;15569;42.652;23.040;2023-04-21T11:56:35;7.78;;;6.10;;
28304;SDS011;15569;42.652;23.040;2023-04-21T11:59:14;8.27;;;4.75;;
28304;SDS011;15569;42.652;23.040;2023-04-21T12:01:47;7.28;;;4.63;;
28304;SDS011;15569;42.652;23.040;2023-04-21T12:04:15;6.93;;;5.20;;
28304;SDS011;15569;42.652;23.040;2023-04-21T12:06:41;13.35;;;5.40;;
28304;SDS011;15569;42.652;23.040;2023-04-21T12:09:08;8.10;;;5.47;;
28304;SDS011;15569;42.652;23.040;2023-04-21T12:11:41;11.15;;;5.55;;
28304;SDS011;15569;42.652;23.040;2023-04-21T12:14:06;11.23;;;4.47;;
28304;SDS011;15569;42.652;23.040;2023-04-21T12:16:32;8.38;;;4.03;;
28304;SDS011;15569;42.652;23.040;2023-04-21T12:19:00;10.80;;;4.55;;
28304;SDS011;15569;42.652;23.040;2023-04-21T12:21:27;6.72;;;5.13;;
28304;SDS011;15569;42.652;23.040;2023-04-21T12:23:53;13.32;;;4.78;;
28304;SDS011;15569;42.652;23.040;2023-04-21T12:26:18;9.65;;;4.90;;
28304;SDS011;15569;42.652;23.040;2023-04-21T12:28:44;10.98;;;4.93;;
28304;SDS011;15569;42.652;23.040;2023-04-21T12:31:09;14.18;;;5.57;;
28304;SDS011;15569;42.652;23.040;2023-04-21T12:33:34;7.22;;;4.68;;
28304;SDS011;15569;42.652;23.040;2023-04-21T12:36:00;9.40;;;5.03;;
28304;SDS011;15569;42.652;23.040;2023-04-21T12:38:25;11.13;;;4.72;;
28304;SDS011;15569;42.652;23.040;2023-04-21T12:40:51;11.30;;;7.80;;
28304;SDS011;15569;42.652;23.040;2023-04-21T12:43:16;15.07;;;5.88;;
28304;SDS011;15569;42.652;23.040;2023-04-21T12:45:41;22.27;;;5.25;;
28304;SDS011;15569;42.652;23.040;2023-04-21T12:48:07;10.30;;;4.90;;
28304;SDS011;15569;42.652;23.040;2023-04-21T12:50:32;10.27;;;4.70;;
28304;SDS011;15569;42.652;23.040;2023-04-21T12:52:58;7.63;;;5.50;;
28304;SDS011;15569;42.652;23.040;2023-04-21T12:55:23;8.30;;;5.85;;
28304;SDS011;15569;42.652;23.040;2023-04-21T12:57:49;7.57;;;5.95;;
28304;SDS011;15569;42.652;23.040;2023-04-21T13:00:15;6.53;;;4.38;;
28304;SDS011;15569;42.652;23.040;2023-04-21T13:02:41;10.45;;;6.45;;
28304;SDS011;15569;42.652;23.040;2023-04-21T13:05:07;13.10;;;5.90;;
28304;SDS011;15569;42.652;23.040;2023-04-21T13:07:34;11.88;;;5.63;;
28304;SDS011;15569;42.652;23.040;2023-04-21T13:10:00;7.50;;;6.03;;
28304;SDS011;15569;42.652;23.040;2023-04-21T13:12:27;10.90;;;5.43;;
28304;SDS011;15569;42.652;23.040;2023-04-21T13:14:52;7.50;;;5.32;;
28304;SDS011;15569;42.652;23.040;2023-04-21T13:17:18;7.53;;;4.60;;
28304;SDS011;15569;42.652;23.040;2023-04-21T13:19:43;4.72;;;3.60;;
28304;SDS011;15569;42.652;23.040;2023-04-21T13:22:09;5.47;;;4.15;;
28304;SDS011;15569;42.652;23.040;2023-04-21T13:24:34;5.47;;;3.95;;
28304;SDS011;15569;42.652;23.040;2023-04-21T13:26:59;13.95;;;5.45;;
28304;SDS011;15569;42.652;23.040;2023-04-21T13:29:28;5.20;;;4.68;;
28304;SDS011;15569;42.652;23.040;2023-04-21T13:31:56;7.28;;;5.53;;
28304;SDS011;15569;42.652;23.040;2023-04-21T13:34:22;7.18;;;5.18;;
28304;SDS011;15569;42.652;23.040;2023-04-21T13:36:47;9.25;;;4.65;;
28304;SDS011;15569;42.652;23.040;2023-04-21T13:39:13;9.05;;;4.97;;
28304;SDS011;15569;42.652;23.040;2023-04-21T13:41:39;6.82;;;5.03;;
28304;SDS011;15569;42.652;23.040;2023-04-21T13:44:04;14.48;;;6.63;;
28304;SDS011;15569;42.652;23.040;2023-04-21T13:46:30;10.02;;;6.70;;
28304;SDS011;15569;42.652;23.040;2023-04-21T13:48:55;7.38;;;5.00;;
28304;SDS011;15569;42.652;23.040;2023-04-21T13:51:21;9.18;;;6.47;;
28304;SDS011;15569;42.652;23.040;2023-04-21T13:53:46;15.10;;;5.72;;
28304;SDS011;15569;42.652;23.040;2023-04-21T13:56:12;7.60;;;6.35;;
28304;SDS011;15569;42.652;23.040;2023-04-21T13:58:38;9.80;;;4.90;;
28304;SDS011;15569;42.652;23.040;2023-04-21T14:01:03;10.77;;;7.78;;
28304;SDS011;15569;42.652;23.040;2023-04-21T14:03:29;16.08;;;5.78;;
28304;SDS011;15569;42.652;23.040;2023-04-21T14:05:54;7.50;;;6.10;;
28304;SDS011;15569;42.652;23.040;2023-04-21T14:08:20;6.60;;;5.32;;
28304;SDS011;15569;42.652;23.040;2023-04-21T14:10:46;14.70;;;5.93;;
28304;SDS011;15569;42.652;23.040;2023-04-21T14:13:11;7.43;;;5.20;;
28304;SDS011;15569;42.652;23.040;2023-04-21T14:15:37;14.65;;;5.25;;
28304;SDS011;15569;42.652;23.040;2023-04-21T14:18:02;9.60;;;6.90;;
28304;SDS011;15569;42.652;23.040;2023-04-21T14:20:28;19.45;;;11.73;;
28304;SDS011;15569;42.652;23.040;2023-04-21T14:22:54;14.70;;;9.07;;
28304;SDS011;15569;42.652;23.040;2023-04-21T14:25:19;21.85;;;12.48;;
28304;SDS011;15569;42.652;23.040;2023-04-21T14:27:45;28.13;;;16.50;;
28304;SDS011;15569;42.652;23.040;2023-04-21T14:30:10;16.92;;;10.45;;
28304;SDS011;15569;42.652;23.040;2023-04-21T14:32:37;20.10;;;11.63;;
28304;SDS011;15569;42.652;23.040;2023-04-21T14:35:08;13.75;;;8.25;;
28304;SDS011;15569;42.652;23.040;2023-04-21T14:37:34;10.30;;;7.70;;